Time;durP1;ratioP1;P1;durP2;ratioP2;P2;SDS_P1;SDS_P2;PMS_P1;PMS_P2;Temp;Humidity;BMP_temperature;BMP_pressure;BME280_temperature;BME280_humidity;BME280_pressure;Samples;Min_cycle;Max_cycle;Signal;HPM_P1;HPM_P2
2022/06/15 00:00:31;;;;;;;17.02;6.72;;;;;;;14.75;100.00;101980.94;5029711;28;20148;-67
2022/06/15 00:02:56;;;;;;;10.35;6.25;;;;;;;14.70;100.00;101985.28;5029412;28;20033;-67
2022/06/15 00:05:22;;;;;;;10.38;6.93;;;;;;;14.68;100.00;101973.78;5033775;28;20059;-67
2022/06/15 00:07:47;;;;;;;12.73;6.82;;;;;;;14.61;100.00;101979.75;5031452;28;20208;-67
2022/06/15 00:10:13;;;;;;;14.40;7.18;;;;;;;14.57;100.00;101975.28;5034052;28;20082;-68
2022/06/15 00:12:38;;;;;;;10.48;6.50;;;;;;;14.60;100.00;101973.59;5031861;28;20025;-67
2022/06/15 00:15:06;;;;;;;10.32;6.40;;;;;;;14.52;100.00;101972.56;5033973;28;20061;-68
2022/06/15 00:17:31;;;;;;;9.60;5.88;;;;;;;14.54;100.00;101976.13;5032885;28;20028;-68
2022/06/15 00:19:56;;;;;;;10.63;6.68;;;;;;;14.47;100.00;101976.88;5027671;28;20471;-68
2022/06/15 00:22:21;;;;;;;9.48;6.00;;;;;;;14.40;100.00;101977.63;5029904;28;20132;-67
2022/06/15 00:24:47;;;;;;;14.32;6.22;;;;;;;14.35;100.00;101980.16;5033084;28;20029;-67
2022/06/15 00:27:13;;;;;;;10.57;6.10;;;;;;;14.45;100.00;101976.84;5033515;28;20422;-67
2022/06/15 00:29:38;;;;;;;9.88;6.45;;;;;;;14.35;100.00;101974.88;5032571;28;20025;-68
2022/06/15 00:32:07;;;;;;;11.35;5.97;;;;;;;14.42;100.00;101968.84;5032102;28;20084;-66
2022/06/15 00:34:32;;;;;;;11.73;6.80;;;;;;;14.30;100.00;101973.91;5027460;28;20036;-67
2022/06/15 00:36:57;;;;;;;14.25;6.60;;;;;;;14.28;100.00;101975.63;5031858;28;20025;-67
2022/06/15 00:39:23;;;;;;;11.40;5.93;;;;;;;14.23;100.00;101972.00;5032599;28;20033;-68
2022/06/15 00:41:48;;;;;;;10.60;6.63;;;;;;;14.16;100.00;101973.63;5029685;28;20439;-68
2022/06/15 00:44:16;;;;;;;10.70;6.88;;;;;;;14.11;100.00;101973.53;5031956;28;20025;-66
2022/06/15 00:46:44;;;;;;;7.68;6.20;;;;;;;14.07;100.00;101969.06;5032111;28;20500;-68
2022/06/15 00:49:24;;;;;;;10.15;6.03;;;;;;;14.03;100.00;101969.84;5030732;28;20029;-67
2022/06/15 00:51:53;;;;;;;11.10;6.63;;;;;;;14.03;100.00;101972.50;5020132;28;20374;-67
2022/06/15 00:54:21;;;;;;;8.27;6.10;;;;;;;13.98;100.00;101966.22;5029722;28;20033;-67
2022/06/15 00:56:47;;;;;;;10.32;6.47;;;;;;;13.95;100.00;101958.22;5032811;28;20469;-68
2022/06/15 00:59:20;;;;;;;9.95;6.35;;;;;;;13.94;100.00;101956.44;5029206;28;20091;-67
2022/06/15 01:01:47;;;;;;;9.52;6.72;;;;;;;13.96;100.00;101960.00;5026352;28;20049;-67
2022/06/15 01:04:12;;;;;;;9.00;6.18;;;;;;;13.98;100.00;101956.53;5031487;28;20025;-67
2022/06/15 01:07:02;;;;;;;10.60;7.22;;;;;;;13.96;100.00;101955.59;5032997;28;20036;-68
2022/06/15 01:09:32;;;;;;;11.30;6.55;;;;;;;13.96;100.00;101946.78;5032278;28;20030;-68
2022/06/15 01:12:30;;;;;;;15.40;7.38;;;;;;;13.92;100.00;101947.59;5032086;28;20488;-67
2022/06/15 01:15:34;;;;;;;13.10;6.93;;;;;;;14.12;100.00;101954.16;5028565;28;20029;-67
2022/06/15 01:18:15;;;;;;;16.60;7.47;;;;;;;14.03;100.00;101948.69;5025750;28;20037;-68
2022/06/15 01:20:49;;;;;;;14.60;6.88;;;;;;;14.05;100.00;101944.28;5027454;28;20025;-67
2022/06/15 01:23:26;;;;;;;9.93;7.13;;;;;;;14.02;100.00;101948.66;5030479;28;20048;-68
2022/06/15 01:25:51;;;;;;;11.48;7.05;;;;;;;14.12;100.00;101951.53;5029293;28;20113;-68
2022/06/15 01:28:32;;;;;;;13.63;7.38;;;;;;;14.14;100.00;101944.47;5032024;28;20115;-67
2022/06/15 01:31:33;;;;;;;11.30;7.80;;;;;;;14.05;100.00;101946.94;5032587;28;20029;-68
2022/06/15 01:34:24;;;;;;;9.95;7.38;;;;;;;13.98;100.00;101942.41;5028972;28;20599;-69
2022/06/15 01:37:21;;;;;;;12.90;7.68;;;;;;;13.83;100.00;101943.84;5030237;28;20120;-68
2022/06/15 01:39:52;;;;;;;11.77;7.03;;;;;;;13.85;100.00;101940.34;5029831;28;20049;-68
2022/06/15 01:42:26;;;;;;;10.98;7.00;;;;;;;13.76;100.00;101944.59;5026545;28;20083;-68
2022/06/15 01:45:00;;;;;;;14.93;7.55;;;;;;;13.74;100.00;101948.97;5030144;28;20406;-67
2022/06/15 01:47:30;;;;;;;10.25;7.00;;;;;;;13.73;100.00;101939.25;5030572;28;20473;-68
2022/06/15 01:50:04;;;;;;;12.70;7.10;;;;;;;13.82;100.00;101936.81;5031843;28;20025;-67
2022/06/15 01:52:35;;;;;;;11.30;7.15;;;;;;;13.88;100.00;101936.03;5032026;28;20390;-68
2022/06/15 01:55:10;;;;;;;15.35;7.68;;;;;;;13.95;100.00;101942.34;5035452;28;20052;-68
2022/06/15 01:57:38;;;;;;;11.43;7.10;;;;;;;14.07;100.00;101932.00;5023061;28;20125;-68
2022/06/15 02:00:13;;;;;;;8.18;6.72;;;;;;;13.98;100.00;101931.81;5034664;28;20036;-68
2022/06/15 02:02:55;;;;;;;11.77;6.55;;;;;;;13.96;100.00;101925.63;5026661;28;20034;-67
2022/06/15 02:05:28;;;;;;;10.43;6.63;;;;;;;13.95;100.00;101923.81;5033524;28;20045;-68
2022/06/15 02:08:10;;;;;;;11.90;6.97;;;;;;;14.02;100.00;101923.06;5031179;28;20025;-67
2022/06/15 02:10:47;;;;;;;11.57;6.40;;;;;;;13.88;100.00;101921.91;5032292;28;20474;-68
2022/06/15 02:13:16;;;;;;;14.02;6.53;;;;;;;13.76;100.00;101919.91;5035645;28;20369;-67
2022/06/15 02:15:46;;;;;;;11.02;6.80;;;;;;;13.75;100.00;101915.47;5034770;28;20026;-68
2022/06/15 02:18:16;;;;;;;9.77;6.40;;;;;;;13.76;100.00;101912.84;5034718;28;20052;-67
2022/06/15 02:20:50;;;;;;;9.95;6.95;;;;;;;13.72;100.00;101918.06;5034415;28;20083;-67
2022/06/15 02:23:16;;;;;;;;;;;;;;;13.71;100.00;101913.63;5034357;28;20024;-68
2022/06/15 02:25:46;;;;;;;12.68;6.38;;;;;;;13.56;100.00;101915.06;5032056;28;19913;-68
2022/06/15 02:28:12;;;;;;;13.30;6.93;;;;;;;13.49;100.00;101911.41;5033806;28;20063;-68
2022/06/15 02:30:39;;;;;;;10.52;6.82;;;;;;;13.44;100.00;101915.72;5034822;28;20354;-67
2022/06/15 02:33:25;;;;;;;9.80;6.53;;;;;;;13.49;100.00;101911.41;5017092;28;20026;-68
2022/06/15 02:35:51;;;;;;;12.70;7.10;;;;;;;13.40;100.00;101911.22;5031741;28;20029;-66
2022/06/15 02:38:16;;;;;;;10.68;6.80;;;;;;;13.35;100.00;101909.28;5034707;28;20076;-67
2022/06/15 02:40:42;;;;;;;10.48;6.50;;;;;;;13.31;100.00;101905.69;5035021;28;20031;-68
2022/06/15 02:43:09;;;;;;;11.48;6.78;;;;;;;13.26;100.00;101905.56;5033584;28;20049;-67
2022/06/15 02:45:38;;;;;;;9.27;6.80;;;;;;;13.23;100.00;101909.91;5035487;28;20082;-68
2022/06/15 02:48:06;;;;;;;9.40;6.35;;;;;;;13.16;100.00;101907.13;5033637;28;20078;-68
2022/06/15 02:50:49;;;;;;;10.57;6.85;;;;;;;13.13;100.00;101904.41;5035582;28;20036;-67
2022/06/15 02:53:18;;;;;;;9.87;6.73;;;;;;;13.12;100.00;101902.63;5034783;28;20497;-67
2022/06/15 02:55:45;;;;;;;10.40;7.05;;;;;;;13.06;100.00;101905.16;5034065;28;20374;-67
2022/06/15 02:58:22;;;;;;;10.32;6.68;;;;;;;13.01;100.00;101904.13;5034127;28;20057;-67
2022/06/15 03:00:47;;;;;;;10.75;6.38;;;;;;;12.99;100.00;101901.47;5034186;28;20060;-67
2022/06/15 03:03:13;;;;;;;11.60;7.60;;;;;;;12.96;100.00;101901.38;5029981;28;20489;-67
2022/06/15 03:05:38;;;;;;;8.73;6.55;;;;;;;12.91;100.00;101894.19;5029960;28;20036;-68
2022/06/15 03:08:04;;;;;;;8.50;7.10;;;;;;;12.84;100.00;101908.13;5030056;28;20021;-69
2022/06/15 03:10:29;;;;;;;8.15;6.80;;;;;;;12.79;100.00;101908.00;5033287;28;20071;-67
2022/06/15 03:12:55;;;;;;;9.23;6.50;;;;;;;12.80;100.00;101902.78;5031523;28;20426;-68
2022/06/15 03:15:21;;;;;;;11.07;6.25;;;;;;;12.76;100.00;101903.53;5035298;28;20056;-67
2022/06/15 03:17:46;;;;;;;14.02;6.53;;;;;;;12.71;100.00;101899.00;5034846;28;20029;-67
2022/06/15 03:20:12;;;;;;;10.77;6.68;;;;;;;12.75;100.00;101899.13;5033723;28;20040;-66
2022/06/15 03:22:37;;;;;;;10.75;6.30;;;;;;;12.74;100.00;101894.69;5030743;28;20033;-67
2022/06/15 03:25:04;;;;;;;9.43;6.75;;;;;;;12.77;100.00;101899.16;5034780;28;20112;-67
2022/06/15 03:27:29;;;;;;;9.95;7.20;;;;;;;12.78;100.00;101899.19;5027559;28;20462;-66
2022/06/15 03:29:55;;;;;;;10.60;6.60;;;;;;;12.75;100.00;101899.13;5033440;28;20034;-67
2022/06/15 03:32:20;;;;;;;11.07;7.07;;;;;;;12.76;100.00;101900.00;5032216;28;20030;-66
2022/06/15 03:34:46;;;;;;;10.05;6.45;;;;;;;12.85;100.00;101902.00;5032045;28;20075;-66
2022/06/15 03:37:11;;;;;;;9.07;6.65;;;;;;;12.80;100.00;101907.16;5034699;28;20132;-68
2022/06/15 03:39:37;;;;;;;12.90;7.43;;;;;;;12.75;100.00;101907.03;5033304;28;20049;-68
2022/06/15 03:42:13;;;;;;;12.25;7.20;;;;;;;12.73;100.00;101911.38;5032818;28;20037;-68
2022/06/15 03:44:39;;;;;;;10.30;7.57;;;;;;;12.65;100.00;101918.22;5033561;28;20033;-68
2022/06/15 03:47:07;;;;;;;11.43;7.18;;;;;;;12.64;100.00;101916.44;5034365;28;20033;-66
2022/06/15 03:49:32;;;;;;;13.30;6.80;;;;;;;12.62;100.00;101918.16;5032104;28;20397;-67
2022/06/15 03:51:58;;;;;;;10.13;7.15;;;;;;;12.58;100.00;101922.44;5031523;28;20044;-68
2022/06/15 03:54:23;;;;;;;10.13;7.15;;;;;;;12.60;100.00;101919.84;5033796;28;20029;-68
2022/06/15 03:56:49;;;;;;;9.65;7.05;;;;;;;12.62;100.00;101918.16;5034242;28;20462;-68
2022/06/15 03:59:15;;;;;;;12.55;7.15;;;;;;;12.60;100.00;101917.19;5034047;28;20025;-67
2022/06/15 04:01:40;;;;;;;10.70;7.28;;;;;;;12.60;100.00;101909.28;5032463;28;20488;-68
2022/06/15 04:04:06;;;;;;;14.18;7.55;;;;;;;12.65;100.00;101915.56;5028407;28;20033;-67
2022/06/15 04:06:32;;;;;;;9.68;7.25;;;;;;;12.62;100.00;101916.38;5029994;28;20477;-68
2022/06/15 04:08:57;;;;;;;13.50;6.78;;;;;;;12.68;100.00;101918.28;5030116;28;20447;-70
2022/06/15 04:14:09;;;;;;;11.18;7.50;;;;;;;12.78;100.00;101912.38;5029655;28;20442;-68
2022/06/15 04:16:35;;;;;;;13.10;7.40;;;;;;;12.98;100.00;101917.25;5033508;28;20053;-67
2022/06/15 04:19:02;;;;;;;13.18;6.85;;;;;;;12.99;100.00;101909.38;5032922;28;20084;-68
2022/06/15 04:21:28;;;;;;;11.80;7.13;;;;;;;13.08;100.00;101911.34;5029314;28;20021;-66
2022/06/15 04:23:53;;;;;;;13.57;6.97;;;;;;;13.06;100.00;101910.44;5028368;28;20530;-68
2022/06/15 04:26:19;;;;;;;11.52;6.55;;;;;;;13.13;100.00;101906.16;5032593;28;20037;-68
2022/06/15 04:28:45;;;;;;;9.82;7.07;;;;;;;13.19;100.00;101916.88;5033140;28;20025;-66
2022/06/15 04:31:10;;;;;;;10.20;6.32;;;;;;;13.21;100.00;101904.59;5032718;28;20023;-67
2022/06/15 04:33:35;;;;;;;8.93;6.85;;;;;;;13.24;100.00;101911.69;5032808;28;20040;-67
2022/06/15 04:36:01;;;;;;;13.63;6.78;;;;;;;13.29;100.00;101912.69;5030895;28;20025;-69
2022/06/15 04:38:27;;;;;;;8.70;6.10;;;;;;;13.37;100.00;101910.25;5033033;28;20056;-68
2022/06/15 04:40:52;;;;;;;12.60;6.70;;;;;;;13.51;100.00;101908.81;5006877;28;20029;-68
2022/06/15 04:43:18;;;;;;;22.55;7.07;;;;;;;13.63;100.00;101910.81;5032147;28;20033;-67
2022/06/15 04:45:43;;;;;;;8.70;5.60;;;;;;;13.65;100.00;101909.09;5033330;28;20075;-67
2022/06/15 04:48:12;;;;;;;9.93;6.22;;;;;;;13.73;100.00;101910.16;5032091;28;20032;-67
2022/06/15 04:50:38;;;;;;;10.77;6.15;;;;;;;13.74;100.00;101911.94;5031881;28;20041;-66
2022/06/15 04:53:05;;;;;;;9.98;6.18;;;;;;;13.80;100.00;101905.88;5032081;28;20489;-67
2022/06/15 04:55:31;;;;;;;10.95;7.15;;;;;;;13.98;100.00;101916.84;5032820;28;20484;-65
2022/06/15 04:57:59;;;;;;;16.92;6.07;;;;;;;14.00;100.00;101920.41;5032929;28;20445;-68
2022/06/15 05:00:30;;;;;;;13.05;6.63;;;;;;;14.07;100.00;101918.75;5032799;28;20388;-68
2022/06/15 05:02:56;;;;;;;14.80;6.22;;;;;;;14.03;100.00;101914.28;5032632;28;20362;-68
2022/06/15 05:05:22;;;;;;;8.60;5.88;;;;;;;13.99;100.00;101918.59;5029721;28;20108;-67
2022/06/15 05:07:47;;;;;;;16.27;6.43;;;;;;;14.12;100.00;101914.47;5029623;28;20521;-68
2022/06/15 05:10:21;;;;;;;8.18;6.70;;;;;;;14.17;100.00;101917.19;5029769;28;20062;-68
2022/06/15 05:12:46;;;;;;;8.32;6.15;;;;;;;14.15;100.00;101917.16;5020042;28;20033;-68
2022/06/15 05:15:13;;;;;;;9.38;5.55;;;;;;;14.21;100.00;101915.50;5025802;28;21869;-69
2022/06/15 05:17:43;;;;;;;10.23;6.00;;;;;;;14.28;100.00;101920.94;5025976;28;20026;-69
2022/06/15 05:20:09;;;;;;;11.30;5.70;;;;;;;14.28;100.00;101920.03;5031768;28;20076;-67
2022/06/15 05:22:37;;;;;;;13.27;5.80;;;;;;;14.27;100.00;101908.56;5028738;28;21056;-66
2022/06/15 05:25:03;;;;;;;10.50;6.20;;;;;;;14.30;100.00;101915.66;5023103;28;20061;-67
2022/06/15 05:27:29;;;;;;;10.55;5.25;;;;;;;14.28;100.00;101910.34;5033309;28;20116;-69
2022/06/15 05:29:54;;;;;;;10.65;5.90;;;;;;;14.32;100.00;101916.56;5034962;28;20101;-69
2022/06/15 05:32:19;;;;;;;10.07;5.90;;;;;;;14.35;100.00;101913.97;5036339;28;20120;-66
2022/06/15 05:34:45;;;;;;;8.82;5.57;;;;;;;14.46;100.00;101909.78;5031543;28;20449;-66
2022/06/15 05:37:10;;;;;;;12.65;6.65;;;;;;;14.47;100.00;101905.38;5027448;28;20029;-66
2022/06/15 05:39:36;;;;;;;11.52;5.72;;;;;;;14.48;100.00;101907.16;5028187;28;20018;-68
2022/06/15 05:42:03;;;;;;;9.27;6.05;;;;;;;14.54;100.00;101911.66;5028686;28;20109;-68
2022/06/15 05:46:59;;;;;;;13.13;5.88;;;;;;;14.72;100.00;101917.31;5027845;28;20037;-67
2022/06/15 05:49:25;;;;;;;12.60;5.85;;;;;;;14.71;100.00;101918.19;5036769;28;20065;-66
2022/06/15 05:51:51;;;;;;;9.52;5.88;;;;;;;14.80;100.00;101920.97;5034544;28;20103;-68
2022/06/15 05:54:16;;;;;;;10.77;6.38;;;;;;;14.86;100.00;101916.66;5029429;28;20061;-66
2022/06/15 05:56:42;;;;;;;10.35;5.75;;;;;;;14.85;100.00;101921.03;5035987;28;20120;-67
2022/06/15 05:59:07;;;;;;;11.75;6.85;;;;;;;14.93;100.00;101921.19;5035968;28;20465;-67
2022/06/15 06:01:35;;;;;;;11.55;6.30;;;;;;;15.01;100.00;101922.19;5032308;28;20021;-68
2022/06/15 06:04:02;;;;;;;9.15;5.40;;;;;;;15.07;100.00;101917.00;5032417;28;20023;-67
2022/06/15 06:06:29;;;;;;;13.27;5.13;;;;;;;15.14;100.00;101921.50;5034483;28;20064;-67
2022/06/15 06:08:56;;;;;;;13.68;6.32;;;;;;;15.22;100.00;101918.97;5035385;28;20104;-68
2022/06/15 06:11:22;;;;;;;9.15;5.90;;;;;;;15.30;100.00;101927.03;5035248;28;20037;-67
2022/06/15 06:13:48;;;;;;;9.63;5.53;;;;;;;15.37;100.00;101922.69;5033183;28;20021;-67
2022/06/15 06:16:14;;;;;;;11.75;5.38;;;;;;;15.43;100.00;101913.06;5035730;28;20075;-66
2022/06/15 06:18:39;;;;;;;9.38;5.43;;;;;;;15.50;100.00;101920.25;5032973;28;20034;-67
2022/06/15 06:21:05;;;;;;;12.15;6.10;;;;;;;15.56;100.00;101918.53;5034760;28;20067;-67
2022/06/15 06:23:34;;;;;;;12.30;5.28;;;;;;;15.61;100.00;101917.75;5034287;28;20120;-67
2022/06/15 06:26:01;;;;;;;12.25;5.22;;;;;;;15.66;100.00;101920.44;5031636;28;20116;-67
2022/06/15 06:28:30;;;;;;;11.13;4.63;;;;;;;15.75;100.00;101917.91;5034784;28;20103;-68
2022/06/15 06:30:57;;;;;;;11.85;5.28;;;;;;;15.88;100.00;101915.44;5034461;28;20036;-67
2022/06/15 06:33:27;;;;;;;10.85;5.05;;;;;;;15.99;100.00;101924.41;5035518;28;20037;-67
2022/06/15 06:35:58;;;;;;;7.85;4.40;;;;;;;16.08;100.00;101921.88;5035391;28;20029;-67
2022/06/15 06:38:24;;;;;;;13.10;5.22;;;;;;;16.17;100.00;101921.09;5033554;28;20041;-67
2022/06/15 06:40:51;;;;;;;9.13;4.82;;;;;;;16.30;100.00;101930.06;5033820;28;20025;-67
2022/06/15 06:43:16;;;;;;;13.23;4.40;;;;;;;16.35;100.00;101936.31;5033371;28;20029;-67
2022/06/15 06:45:42;;;;;;;13.73;4.53;;;;;;;16.41;100.00;101935.47;5027959;28;20040;-68
2022/06/15 06:48:08;;;;;;;11.82;5.18;;;;;;;16.46;100.00;101932.00;5033208;28;20075;-66
2022/06/15 06:50:35;;;;;;;11.38;5.80;;;;;;;16.56;100.00;101935.63;5031729;28;20078;-66
2022/06/15 06:53:01;;;;;;;11.32;4.25;;;;;;;16.68;100.00;101943.72;5034687;28;20432;-67
2022/06/15 06:55:28;;;;;;;9.70;4.70;;;;;;;16.74;100.00;101945.53;5035350;28;20113;-69
2022/06/15 06:57:57;;;;;;;6.50;3.40;;;;;;;16.86;100.00;101943.00;5045087;28;20465;-68
2022/06/15 07:00:23;;;;;;;10.95;4.95;;;;;;;16.93;100.00;101938.66;5034762;28;20373;-69
2022/06/15 07:02:49;;;;;;;10.88;4.75;;;;;;;16.98;100.00;101942.25;5034504;28;20036;-68
2022/06/15 07:05:14;;;;;;;7.63;4.30;;;;;;;17.05;100.00;101943.19;5029704;28;20039;-68
2022/06/15 07:07:40;;;;;;;8.32;4.10;;;;;;;17.08;100.00;101945.84;5032671;28;20100;-68
2022/06/15 07:10:06;;;;;;;11.32;4.47;;;;;;;17.18;100.00;101949.47;5039030;28;20099;-69
2022/06/15 07:12:33;;;;;;;7.88;4.05;;;;;;;17.27;100.00;101943.28;5036335;28;20022;-68
2022/06/15 07:14:58;;;;;;;9.45;4.40;;;;;;;17.34;100.00;101947.78;5040774;28;20021;-67
2022/06/15 07:17:23;;;;;;;7.95;4.10;;;;;;;17.40;100.00;101950.47;5033022;28;20087;-68
2022/06/15 07:19:49;;;;;;;10.50;4.10;;;;;;;17.48;100.00;101948.75;5043193;28;20032;-69
2022/06/15 07:22:14;;;;;;;12.80;4.10;;;;;;;17.57;100.00;101950.59;5035875;28;20536;-68
2022/06/15 07:24:40;;;;;;;8.80;3.65;;;;;;;17.67;100.00;101951.50;5035742;28;20037;-66
2022/06/15 07:27:05;;;;;;;7.35;3.83;;;;;;;17.71;100.00;101958.63;5031663;28;20028;-67
2022/06/15 07:29:30;;;;;;;6.80;3.70;;;;;;;17.77;100.00;101960.44;5034184;28;20466;-68
2022/06/15 07:31:56;;;;;;;10.27;4.63;;;;;;;17.77;100.00;101948.03;5033468;28;20075;-68
2022/06/15 07:34:23;;;;;;;8.95;3.38;;;;;;;17.91;100.00;101952.53;5040151;28;20029;-68
2022/06/15 07:36:49;;;;;;;5.80;3.30;;;;;;;18.03;100.00;101953.47;5038556;28;20052;-67
2022/06/15 07:39:21;;;;;;;7.13;3.47;;;;;;;18.11;100.00;101958.84;5035022;28;20025;-68
2022/06/15 07:41:47;;;;;;;7.22;3.45;;;;;;;18.22;100.00;101957.97;5045428;28;20056;-66
2022/06/15 07:44:14;;;;;;;7.85;3.35;;;;;;;18.27;100.00;101956.19;5035658;28;20486;-69
2022/06/15 07:46:40;;;;;;;6.47;3.13;;;;;;;18.40;100.00;101963.34;5029420;28;20034;-69
2022/06/15 07:51:59;;;;;;;13.98;4.85;;;;;;;18.53;100.00;101958.94;5036021;28;20424;-70
2022/06/15 07:54:25;;;;;;;10.50;4.13;;;;;;;18.70;100.00;101956.28;5037115;28;20025;-70
2022/06/15 07:56:55;;;;;;;11.35;3.80;;;;;;;18.76;100.00;101950.97;5031409;28;20033;-69
2022/06/15 07:59:21;;;;;;;6.22;3.03;;;;;;;18.84;100.00;101954.50;5043245;28;20068;-69
2022/06/15 08:01:46;;;;;;;11.20;2.72;;;;;;;18.95;100.00;101956.31;5035254;28;20056;-69
2022/06/15 08:04:13;;;;;;;7.13;3.17;;;;;;;18.98;99.19;101941.19;5033684;28;20025;-68
2022/06/15 08:06:41;;;;;;;9.38;3.58;;;;;;;19.06;99.62;101954.53;5039157;28;20033;-68
2022/06/15 08:09:09;;;;;;;5.05;2.80;;;;;;;19.10;99.13;101956.31;5033366;28;20029;-68
2022/06/15 08:11:37;;;;;;;10.35;3.40;;;;;;;19.19;98.13;101955.38;5030325;28;20131;-68
2022/06/15 08:14:04;;;;;;;7.47;2.30;;;;;;;19.39;95.46;101963.38;5037494;28;20494;-69
2022/06/15 08:16:30;;;;;;;5.63;1.58;;;;;;;19.49;92.29;101953.56;5046797;28;20029;-69
2022/06/15 08:19:00;;;;;;;7.22;2.13;;;;;;;19.58;88.06;101949.97;5037157;28;20108;-69
2022/06/15 08:21:30;;;;;;;6.50;2.22;;;;;;;19.74;91.58;101951.69;5030957;28;20026;-69
2022/06/15 08:23:58;;;;;;;12.85;3.60;;;;;;;19.90;90.87;101952.56;5030347;28;20393;-69
2022/06/15 08:26:28;;;;;;;8.25;2.10;;;;;;;20.02;88.70;101951.59;5025766;28;20030;-68
2022/06/15 08:28:57;;;;;;;6.30;2.40;;;;;;;20.12;88.61;101961.34;5037058;28;20033;-68
2022/06/15 08:31:23;;;;;;;8.52;2.10;;;;;;;20.15;82.14;101955.97;5033373;28;20068;-69
2022/06/15 08:33:49;;;;;;;9.65;1.70;;;;;;;20.25;78.03;101950.59;5040592;28;20028;-69
2022/06/15 08:36:15;;;;;;;9.23;1.98;;;;;;;20.32;80.27;101960.34;5032268;28;20432;-69
2022/06/15 08:38:41;;;;;;;4.65;2.08;;;;;;;20.45;74.82;101953.13;5033645;28;20022;-70
2022/06/15 08:41:35;;;;;;;9.02;2.72;;;;;;;20.61;70.12;101959.28;5038590;28;20067;-69
2022/06/15 08:44:13;;;;;;;8.15;1.80;;;;;;;20.60;70.56;101966.38;5037182;28;20056;-69
2022/06/15 08:47:06;;;;;;;8.98;2.85;;;;;;;20.71;68.89;101958.31;5032317;28;20477;-68
2022/06/15 08:50:01;;;;;;;8.80;1.77;;;;;;;20.69;74.35;101961.00;5033685;28;20461;-69
2022/06/15 08:52:37;;;;;;;6.35;2.83;;;;;;;20.77;73.85;101963.63;5037932;28;20099;-69
2022/06/15 08:55:08;;;;;;;5.78;1.90;;;;;;;20.85;72.14;101961.78;5032024;28;20033;-69
2022/06/15 08:57:42;;;;;;;9.27;2.65;;;;;;;20.87;72.12;101961.75;5033741;28;20568;-69
2022/06/15 09:00:18;;;;;;;7.60;2.20;;;;;;;20.92;70.90;101953.69;5037872;28;20480;-69
2022/06/15 09:03:13;;;;;;;9.65;2.00;;;;;;;21.00;70.66;101952.72;5036604;28;20036;-68
2022/06/15 09:05:56;;;;;;;7.28;2.05;;;;;;;21.08;70.79;101944.63;5034162;28;20077;-69
2022/06/15 09:08:27;;;;;;;7.55;2.30;;;;;;;21.18;68.08;101946.31;5044150;28;20048;-69
2022/06/15 09:11:17;;;;;;;11.13;3.03;;;;;;;21.29;66.82;101943.50;5027138;28;20485;-68
2022/06/15 09:13:51;;;;;;;4.93;2.00;;;;;;;21.35;67.39;101948.81;5034891;28;20021;-69
2022/06/15 09:16:23;;;;;;;8.00;2.13;;;;;;;21.44;69.89;101945.13;5048844;28;20071;-69
2022/06/15 09:19:02;;;;;;;4.78;1.73;;;;;;;21.53;65.76;101937.03;5034857;28;20033;-69
2022/06/15 09:21:35;;;;;;;8.07;1.88;;;;;;;21.67;65.47;101941.34;5034370;28;20056;-68
2022/06/15 09:24:08;;;;;;;5.30;1.73;;;;;;;21.63;67.15;101942.28;5017464;28;20072;-69
2022/06/15 09:26:56;;;;;;;3.47;1.88;;;;;;;21.71;65.18;101940.41;5031188;28;20034;-69
2022/06/15 09:29:27;;;;;;;6.30;2.35;;;;;;;21.68;65.78;101927.06;5023495;28;20107;-70
2022/06/15 09:32:18;;;;;;;7.25;2.40;;;;;;;21.89;64.72;101942.84;5036926;28;20048;-70
2022/06/15 09:35:10;;;;;;;9.85;2.15;;;;;;;21.90;66.77;101941.06;5030682;28;20029;-70
2022/06/15 09:37:39;;;;;;;5.32;1.88;;;;;;;21.86;66.37;101940.19;5042434;28;20025;-69
2022/06/15 09:40:06;;;;;;;6.50;1.75;;;;;;;21.85;63.90;101935.75;5030601;28;20053;-70
2022/06/15 09:42:53;;;;;;;8.93;2.53;;;;;;;22.09;61.97;101938.13;5034798;28;20041;-69
2022/06/15 09:45:31;;;;;;;9.75;2.63;;;;;;;22.11;66.88;101945.25;5028413;28;20112;-69
2022/06/15 09:48:16;;;;;;;6.28;1.83;;;;;;;22.26;62.48;101943.22;5025085;28;20043;-69
2022/06/15 09:51:09;;;;;;;6.18;2.65;;;;;;;22.33;59.14;101935.09;5031833;28;20090;-68
2022/06/15 09:53:44;;;;;;;8.30;1.67;;;;;;;22.47;61.98;101947.44;5033559;28;21585;-68
2022/06/15 09:56:13;;;;;;;8.95;2.13;;;;;;;22.54;62.62;101938.38;5029671;28;20326;-68
2022/06/15 09:59:03;;;;;;;4.45;1.55;;;;;;;22.60;64.27;101950.78;5031631;28;20022;-69
2022/06/15 10:01:36;;;;;;;6.30;2.17;;;;;;;22.73;62.38;101949.69;5038241;28;20033;-68
2022/06/15 10:04:04;;;;;;;7.57;2.00;;;;;;;22.83;61.29;101950.41;5037521;28;20389;-68
2022/06/15 10:06:46;;;;;;;3.78;1.60;;;;;;;22.81;62.48;101942.38;5024976;28;20029;-68
2022/06/15 10:09:17;;;;;;;14.18;2.30;;;;;;;23.03;58.11;101947.38;5037781;28;20029;-68
2022/06/15 10:11:47;;;;;;;7.25;1.80;;;;;;;23.19;59.26;101943.53;5032714;28;20429;-70
2022/06/15 10:14:27;;;;;;;5.60;1.65;;;;;;;23.27;56.93;101945.22;5035137;28;20460;-69
2022/06/15 10:17:04;;;;;;;4.10;2.10;;;;;;;23.21;55.42;101940.81;5033249;28;20107;-70
2022/06/15 10:19:32;;;;;;;5.97;2.40;;;;;;;23.24;58.05;101938.97;5036444;28;20100;-69
2022/06/15 10:22:01;;;;;;;6.82;2.08;;;;;;;23.38;55.26;101933.31;5041521;28;20025;-70
2022/06/15 10:24:34;;;;;;;6.20;2.08;;;;;;;23.51;56.74;101933.09;5034130;28;20060;-68
2022/06/15 10:27:18;;;;;;;5.30;1.98;;;;;;;23.67;57.52;101939.03;5033663;28;20018;-68
2022/06/15 10:29:54;;;;;;;7.88;2.38;;;;;;;23.45;57.45;101944.84;5037335;28;20543;-68
2022/06/15 10:32:20;;;;;;;5.28;2.13;;;;;;;23.68;61.40;101943.50;5026965;28;20104;-69
2022/06/15 10:34:45;;;;;;;8.18;2.20;;;;;;;23.84;56.50;101941.38;5034602;28;20072;-69
2022/06/15 10:37:23;;;;;;;5.73;2.20;;;;;;;24.00;57.95;101948.22;5039324;28;20026;-68
2022/06/15 10:39:51;;;;;;;8.00;2.08;;;;;;;24.22;57.01;101945.91;5037856;28;20306;-69
2022/06/15 10:42:46;;;;;;;9.73;2.67;;;;;;;24.26;56.52;101944.06;5033968;28;20022;-68
2022/06/15 10:45:26;;;;;;;7.15;1.90;;;;;;;24.28;54.32;101941.31;5035838;28;20092;-69
2022/06/15 10:48:00;;;;;;;10.93;2.20;;;;;;;23.98;55.11;101933.91;5036732;28;20108;-68
2022/06/15 10:50:30;;;;;;;3.80;1.90;;;;;;;24.22;56.30;101947.72;5041275;28;20034;-67
2022/06/15 10:53:05;;;;;;;5.30;2.88;;;;;;;24.27;52.32;101944.91;5035536;28;20064;-68
2022/06/15 11:04:55;;;;;;;5.00;2.13;;;;;;;24.75;60.48;101950.06;5037689;28;20055;-67
2022/06/15 11:07:20;;;;;;;9.55;2.15;;;;;;;25.03;62.74;101950.25;5029487;28;20420;-67
2022/06/15 11:09:55;;;;;;;6.83;2.07;;;;;;;24.92;54.97;101945.16;5038922;28;20025;-68
2022/06/15 11:12:30;;;;;;;8.85;3.30;;;;;;;25.08;54.46;101933.97;5046664;28;20313;-69
2022/06/15 11:14:58;;;;;;;6.93;2.35;;;;;;;25.12;56.97;101935.63;5042061;28;20430;-68
2022/06/15 11:20:25;;;;;;;9.30;2.40;;;;;;;25.25;51.83;101920.91;5025518;28;20056;-68
2022/06/15 11:22:53;;;;;;;6.13;2.35;;;;;;;25.53;50.28;101914.78;5034367;28;20183;-67
2022/06/15 11:25:29;;;;;;;7.40;2.63;;;;;;;25.62;50.23;101915.44;5037725;28;20083;-68
2022/06/15 11:28:02;;;;;;;4.13;1.80;;;;;;;25.04;50.09;101916.13;5034522;28;20106;-70
2022/06/15 11:30:42;;;;;;;4.85;1.90;;;;;;;25.42;51.49;101908.81;5032388;28;20458;-68
2022/06/15 11:33:33;;;;;;;3.63;1.98;;;;;;;25.64;46.50;101910.88;5034704;28;20032;-67
2022/06/15 11:36:28;;;;;;;8.85;2.20;;;;;;;25.89;44.84;101908.31;5028234;28;20115;-69
2022/06/15 11:39:20;;;;;;;6.28;2.15;;;;;;;25.65;48.16;101912.66;5032188;28;20017;-68
2022/06/15 11:41:51;;;;;;;10.25;1.95;;;;;;;25.89;51.45;101911.03;5032593;28;20083;-67
2022/06/15 11:44:21;;;;;;;8.40;2.00;;;;;;;25.87;49.90;101913.78;5035006;28;20025;-68
2022/06/15 11:47:02;;;;;;;5.35;2.30;;;;;;;26.09;48.58;101907.75;5036036;28;20037;-69
2022/06/15 11:49:27;;;;;;;6.28;2.22;;;;;;;26.32;49.77;101908.84;5024387;28;20045;-69
2022/06/15 11:52:13;;;;;;;9.37;2.50;;;;;;;26.58;50.64;101916.06;5033505;28;20080;-69